Airport View

Enter AWOS ICAO identifier for current METAR.

ex. KFNL

KMCX 250110Z AUTO 17005KT 10SM BKN048 27/18 A2991 RMK AO2 T02700176

25 May 2020 00:55

Frequency: 124.05

Phone: 574-583-0531

Other Area AWOS: KGGP - KLAF - KRZL - KFKR

TAF KLAF 242320Z 2500/2524 18009KT P6SM SCT040 BKN250 FM250400 17004KT P6SM BKN200 FM251300 20006KT P6SM SCT250 FM251900 19008KT P6SM VCTS SCT040CB BKN250 AMD LTD TO CLD VIS AND WIND 2501/2513